TimeCST,TemperatureF,Dew PointF,Humidity,Sea Level PressureIn,VisibilityMPH,Wind Direction,Wind SpeedMPH,Gust SpeedMPH,PrecipitationIn,Events,Conditions,WindDirDegrees,DateUTC
12:15 AM,22.1,19.6,90,30.12,5.0,Calm,Calm,-,N/A,,Clear,0,2013-02-04 06:15:00
12:35 AM,22.3,20.3,92,30.11,4.0,Calm,Calm,-,N/A,,Clear,0,2013-02-04 06:35:00
12:55 AM,21.9,19.8,91,30.11,7.0,Calm,Calm,-,N/A,,Clear,0,2013-02-04 06:55:00
1:15 AM,21.9,19.6,91,30.12,7.0,Calm,Calm,-,N/A,,Clear,0,2013-02-04 07:15:00
1:35 AM,21.2,18.3,89,30.12,7.0,Calm,Calm,-,N/A,,Clear,0,2013-02-04 07:35:00
1:55 AM,20.8,17.4,87,30.11,7.0,Calm,Calm,-,N/A,,Clear,0,2013-02-04 07:55:00
2:15 AM,21.2,19.0,91,30.10,5.0,Calm,Calm,-,N/A,,Clear,0,2013-02-04 08:15:00
2:35 AM,21.6,19.2,91,30.10,7.0,ESE,3.5,-,N/A,,Clear,120,2013-02-04 08:35:00
2:55 AM,21.6,19.2,91,30.11,5.0,Calm,Calm,-,N/A,,Clear,0,2013-02-04 08:55:00
3:15 AM,21.2,19.0,91,30.11,7.0,Calm,Calm,-,N/A,,Clear,0,2013-02-04 09:15:00
4:55 AM,22.8,20.7,91,30.08,7.0,East,3.5,-,N/A,,Clear,90,2013-02-04 10:55:00
5:15 AM,23.4,21.0,91,30.09,5.0,Calm,Calm,-,N/A,,Clear,0,2013-02-04 11:15:00
5:35 AM,23.7,21.2,90,30.08,7.0,Calm,Calm,-,N/A,,Clear,0,2013-02-04 11:35:00
5:55 AM,23.5,21.0,90,30.07,5.0,Calm,Calm,-,N/A,,Clear,0,2013-02-04 11:55:00
6:15 AM,24.1,21.4,89,30.06,7.0,East,3.5,-,N/A,,Clear,100,2013-02-04 12:15:00
6:35 AM,24.6,21.4,87,30.06,7.0,Calm,Calm,-,N/A,,Clear,0,2013-02-04 12:35:00
6:55 AM,26.2,21.7,83,30.05,7.0,SE,3.5,-,N/A,,Clear,130,2013-02-04 12:55:00
7:15 AM,27.5,19.4,72,30.05,10.0,Calm,Calm,-,N/A,,Clear,0,2013-02-04 13:15:00
7:35 AM,28.4,17.6,64,30.05,10.0,SE,4.6,-,N/A,,Clear,130,2013-02-04 13:35:00
7:55 AM,29.3,16.2,58,30.06,10.0,SE,4.6,-,N/A,,Clear,140,2013-02-04 13:55:00
8:15 AM,30.2,15.1,53,30.06,10.0,South,4.6,-,N/A,,Clear,170,2013-02-04 14:15:00
8:35 AM,30.9,14.9,52,30.06,7.0,South,6.9,-,N/A,,Clear,180,2013-02-04 14:35:00
8:55 AM,31.8,15.1,50,30.05,10.0,South,6.9,-,N/A,,Scattered Clouds,170,2013-02-04 14:55:00
9:15 AM,32.7,15.1,48,30.05,10.0,South,9.2,-,N/A,,Mostly Cloudy,190,2013-02-04 15:15:00
9:55 AM,36.7,14.0,39,30.03,10.0,South,10.4,-,N/A,,Scattered Clouds,190,2013-02-04 15:55:00
10:15 AM,37.8,13.1,36,30.02,10.0,South,11.5,-,N/A,,Scattered Clouds,190,2013-02-04 16:15:00
10:35 AM,39.2,11.8,33,30.00,10.0,South,12.7,18.4,N/A,,Scattered Clouds,170,2013-02-04 16:35:00
10:55 AM,41.0,10.4,29,29.99,10.0,South,8.1,16.1,N/A,,Clear,180,2013-02-04 16:55:00
11:15 AM,43.0,9.7,26,29.98,10.0,SSW,11.5,19.6,N/A,,Clear,200,2013-02-04 17:15:00
11:35 AM,44.6,6.4,21,29.97,10.0,SSW,9.2,16.1,N/A,,Clear,200,2013-02-04 17:35:00
11:55 AM,46.4,5.5,19,29.96,10.0,SSW,15.0,23.0,N/A,,Clear,200,2013-02-04 17:55:00
12:15 PM,48.0,0.7,14,29.94,10.0,SSW,11.5,18.4,N/A,,Clear,200,2013-02-04 18:15:00
12:35 PM,49.1,-3.3,11,29.93,10.0,SSW,11.5,21.9,N/A,,Clear,210,2013-02-04 18:35:00
12:55 PM,49.6,-6.2,10,29.91,10.0,South,13.8,20.7,N/A,,Clear,190,2013-02-04 18:55:00
1:15 PM,49.6,-4.9,10,29.91,10.0,SSW,11.5,16.1,N/A,,Scattered Clouds,210,2013-02-04 19:15:00
1:35 PM,49.3,-4.9,10,29.91,10.0,SW,11.5,-,N/A,,Mostly Cloudy,220,2013-02-04 19:35:00
1:55 PM,50.7,-16.4,6,29.90,10.0,SSW,13.8,18.4,N/A,,Scattered Clouds,210,2013-02-04 19:55:00
2:15 PM,50.5,-17.7,5,29.89,10.0,SW,8.1,-,N/A,,Clear,220,2013-02-04 20:15:00
2:35 PM,50.4,-12.3,7,29.90,10.0,SW,11.5,16.1,N/A,,Scattered Clouds,220,2013-02-04 20:35:00
2:55 PM,50.5,-15.0,6,29.90,10.0,SW,10.4,18.4,N/A,,Overcast,220,2013-02-04 20:55:00
3:15 PM,50.4,-15.9,6,29.90,10.0,SW,9.2,-,N/A,,Overcast,230,2013-02-04 21:15:00
3:35 PM,50.2,-11.9,7,29.90,10.0,SW,11.5,-,N/A,,Overcast,230,2013-02-04 21:35:00
3:55 PM,50.4,-8.9,8,29.89,10.0,WSW,13.8,18.4,N/A,,Overcast,240,2013-02-04 21:55:00
4:15 PM,50.2,-6.5,9,29.89,10.0,WSW,13.8,25.3,N/A,,Overcast,240,2013-02-04 22:15:00
4:35 PM,49.6,0.1,13,29.89,10.0,WSW,9.2,-,N/A,Rain,Light Rain,250,2013-02-04 22:35:00
4:55 PM,49.1,3.4,15,29.89,10.0,WSW,10.4,-,N/A,,Overcast,250,2013-02-04 22:55:00
5:15 PM,48.7,7.2,19,29.90,10.0,WSW,8.1,-,N/A,,Overcast,250,2013-02-04 23:15:00
5:35 PM,47.5,11.3,23,29.90,10.0,WSW,6.9,-,N/A,,Light Drizzle,240,2013-02-04 23:35:00
5:55 PM,46.2,16.0,30,29.90,10.0,WSW,3.5,-,N/A,Rain,Light Rain,250,2013-02-04 23:55:00
6:15 PM,45.5,18.3,34,29.91,10.0,West,3.5,-,N/A,Rain,Rain,270,2013-02-05 00:15:00
6:35 PM,45.0,19.2,36,29.90,10.0,SW,5.8,-,N/A,Rain,Light Rain,220,2013-02-05 00:35:00
7:15 PM,43.7,22.6,43,29.91,10.0,Calm,Calm,-,N/A,,Light Drizzle,0,2013-02-05 01:15:00
7:35 PM,43.3,22.6,44,29.91,10.0,Calm,Calm,-,N/A,Rain,Light Rain,0,2013-02-05 01:35:00
7:55 PM,43.7,21.4,41,29.92,10.0,WSW,3.5,-,N/A,,Overcast,250,2013-02-05 01:55:00
8:15 PM,43.7,22.1,42,29.92,10.0,SW,3.5,-,N/A,,Overcast,230,2013-02-05 02:15:00
8:35 PM,43.5,22.1,43,29.92,10.0,SW,3.5,-,N/A,,Overcast,220,2013-02-05 02:35:00
8:55 PM,44.1,20.8,40,29.92,10.0,SSW,3.5,-,N/A,,Overcast,210,2013-02-05 02:55:00
9:15 PM,44.1,21.4,41,29.92,10.0,South,3.5,-,N/A,,Overcast,170,2013-02-05 03:15:00
9:35 PM,44.1,21.7,41,29.92,10.0,West,3.5,-,N/A,,Light Drizzle,270,2013-02-05 03:35:00
9:55 PM,43.9,22.5,43,29.93,10.0,Calm,Calm,-,N/A,,Light Drizzle,0,2013-02-05 03:55:00
10:15 PM,43.5,23.2,45,29.92,10.0,Calm,Calm,-,N/A,,Overcast,0,2013-02-05 04:15:00
10:35 PM,43.0,23.9,47,29.92,10.0,Calm,Calm,-,N/A,,Overcast,0,2013-02-05 04:35:00
10:55 PM,43.0,23.7,47,29.92,10.0,Calm,Calm,-,N/A,,Overcast,0,2013-02-05 04:55:00
11:15 PM,43.9,22.3,42,29.91,10.0,West,3.5,-,N/A,,Overcast,270,2013-02-05 05:15:00
11:35 PM,44.4,22.3,42,29.91,10.0,WSW,9.2,-,N/A,,Overcast,250,2013-02-05 05:35:00
11:55 PM,45.0,23.7,43,29.92,10.0,WSW,8.1,-,N/A,,Overcast,250,2013-02-05 05:55:00